EHRD Airport Information

Runway Information
Runway 06 Length 7218 ft width 148 ft
Elevation 0 ft Threshold 656 ft Heading 57
Runway 24 Length 7218 ft Width 148 ft
Elevation 0 ft Threshold 656 ft Heading 237
Airport Frequencies
Type A/D Name SCHIPHOL Frequency 121.2 MHZ
Type APP Name APP Frequency 127.025 MHZ
Type ATIS Name ATIS Frequency 110.4 MHZ
Type GND Name GND Frequency 122.175 MHZ
Type TWR Name TWR Frequency 118.2 MHZ
Airport Navaids
Type NDB Name Rotterdam Frequency 351 KHZ
Type VOR-DME Name Rotterdam Frequency 110400 KHZ
Airport Weather Information & NOTAM
ADDS - METARS form results

(1919 UTC 19 July 2018)
 
METAR text: EHRD 191855Z AUTO 35005KT 300V030 9999 NSC 19/12 Q1017 NOSIG
Conditions at: EHRD (ROTTERDAM AIRPOR, NL) observed 1855 UTC 19 July 2018
Temperature: 19.0°C (66°F)
Dewpoint: 12.0°C (54°F) [RH = 64%]
Pressure (altimeter): 30.03 inches Hg (1017.0 mb)
Winds: from the N (350 degrees) at 6 MPH (5 knots; 2.6 m/s)
Visibility: 6 or more miles (10+ km)
Ceiling: at least 12,000 feet AGL
Clouds: sky clear below 12,000 feet AGL
Weather: no significant weather observed at this time

METAR text: EHRD 191825Z AUTO 35007KT 300V020 9999 NSC 20/12 Q1017 NOSIG
Conditions at: EHRD (ROTTERDAM AIRPOR, NL) observed 1825 UTC 19 July 2018
Temperature: 20.0°C (68°F)
Dewpoint: 12.0°C (54°F) [RH = 60%]
Pressure (altimeter): 30.03 inches Hg (1017.0 mb)
Winds: from the N (350 degrees) at 8 MPH (7 knots; 3.6 m/s)
Visibility: 6 or more miles (10+ km)
Ceiling: at least 12,000 feet AGL
Clouds: sky clear below 12,000 feet AGL
Weather: no significant weather observed at this time